Terminal Aerodrome Forecast
Issued by NWS Brownsville, TX

Home | Current Version | Previous Version | Text Only | Print | Product List | Glossary On
Versions: 1 2 3 4 5 6 7 8 9 10 11 12 13 14 15 16 17 18 19 20 21 22 23 24 25 26 27 28
000
FTUS44 KBRO 160535
TAFBRO
TAF
KBRO 160535Z 1606/1706 15014KT P6SM SCT030
      TEMPO 1606/1609 BKN035
     FM161100 15010KT P6SM VCSH SCT025
     FM161500 15016G24KT P6SM SCT030 SCT050
     FM162200 14013G19KT P6SM SCT050=

USA.gov is the U.S. government's official web portal to all federal, state and local government web resources and services.